sensor_id;sensor_type;location;lat;lon;timestamp;pressure;altitude;pressure_sealevel;temperature
28305;BMP280;15569;42.652;23.040;2024-03-02T00:01:58;92390.84;;;10.86
28305;BMP280;15569;42.652;23.040;2024-03-02T00:04:24;92396.44;;;10.72
28305;BMP280;15569;42.652;23.040;2024-03-02T00:06:52;92384.72;;;10.68
28305;BMP280;15569;42.652;23.040;2024-03-02T00:09:20;92382.22;;;10.74
28305;BMP280;15569;42.652;23.040;2024-03-02T00:11:45;92382.31;;;10.76
28305;BMP280;15569;42.652;23.040;2024-03-02T00:14:11;92384.94;;;10.74
28305;BMP280;15569;42.652;23.040;2024-03-02T00:16:36;92383.59;;;10.57
28305;BMP280;15569;42.652;23.040;2024-03-02T00:19:05;92385.25;;;10.64
28305;BMP280;15569;42.652;23.040;2024-03-02T00:21:32;92376.56;;;10.68
28305;BMP280;15569;42.652;23.040;2024-03-02T00:23:58;92386.16;;;10.71
28305;BMP280;15569;42.652;23.040;2024-03-02T00:26:25;92373.94;;;10.54
28305;BMP280;15569;42.652;23.040;2024-03-02T00:28:54;92383.22;;;10.65
28305;BMP280;15569;42.652;23.040;2024-03-02T00:31:22;92387.44;;;10.68
28305;BMP280;15569;42.652;23.040;2024-03-02T00:33:48;92381.34;;;10.69
28305;BMP280;15569;42.652;23.040;2024-03-02T00:36:32;92381.81;;;10.64
28305;BMP280;15569;42.652;23.040;2024-03-02T00:38:58;92373.59;;;10.62
28305;BMP280;15569;42.652;23.040;2024-03-02T00:41:31;92379.63;;;10.60
28305;BMP280;15569;42.652;23.040;2024-03-02T00:44:15;92372.19;;;10.61
28305;BMP280;15569;42.652;23.040;2024-03-02T00:46:42;92372.19;;;10.61
28305;BMP280;15569;42.652;23.040;2024-03-02T00:49:21;92376.69;;;10.72
28305;BMP280;15569;42.652;23.040;2024-03-02T00:51:48;92379.00;;;10.62
28305;BMP280;15569;42.652;23.040;2024-03-02T00:54:14;92377.91;;;10.69
28305;BMP280;15569;42.652;23.040;2024-03-02T00:56:41;92366.06;;;10.60
28305;BMP280;15569;42.652;23.040;2024-03-02T00:59:06;92370.03;;;10.75
28305;BMP280;15569;42.652;23.040;2024-03-02T01:01:33;92385.75;;;10.76
28305;BMP280;15569;42.652;23.040;2024-03-02T01:03:59;92371.75;;;10.84
28305;BMP280;15569;42.652;23.040;2024-03-02T01:06:24;92374.09;;;10.91
28305;BMP280;15569;42.652;23.040;2024-03-02T01:08:50;92380.22;;;10.92
28305;BMP280;15569;42.652;23.040;2024-03-02T01:11:16;92361.63;;;10.86
28305;BMP280;15569;42.652;23.040;2024-03-02T01:13:43;92373.47;;;10.93
28305;BMP280;15569;42.652;23.040;2024-03-02T01:16:08;92359.25;;;10.94
28305;BMP280;15569;42.652;23.040;2024-03-02T01:18:33;92360.56;;;10.93
28305;BMP280;15569;42.652;23.040;2024-03-02T01:20:59;92360.88;;;10.84
28305;BMP280;15569;42.652;23.040;2024-03-02T01:23:25;92353.88;;;10.79
28305;BMP280;15569;42.652;23.040;2024-03-02T01:25:51;92350.41;;;10.76
28305;BMP280;15569;42.652;23.040;2024-03-02T01:28:17;92340.38;;;10.81
28305;BMP280;15569;42.652;23.040;2024-03-02T01:30:44;92350.00;;;10.84
28305;BMP280;15569;42.652;23.040;2024-03-02T01:33:09;92349.69;;;10.76
28305;BMP280;15569;42.652;23.040;2024-03-02T01:35:35;92341.03;;;10.64
28305;BMP280;15569;42.652;23.040;2024-03-02T01:38:01;92343.34;;;10.54
28305;BMP280;15569;42.652;23.040;2024-03-02T01:40:26;92340.88;;;10.60
28305;BMP280;15569;42.652;23.040;2024-03-02T01:42:53;92337.34;;;10.73
28305;BMP280;15569;42.652;23.040;2024-03-02T01:45:23;92326.16;;;10.65
28305;BMP280;15569;42.652;23.040;2024-03-02T01:47:48;92337.16;;;10.86
28305;BMP280;15569;42.652;23.040;2024-03-02T01:50:14;92338.94;;;10.80
28305;BMP280;15569;42.652;23.040;2024-03-02T01:52:39;92343.00;;;10.79
28305;BMP280;15569;42.652;23.040;2024-03-02T01:55:05;92337.94;;;10.71
28305;BMP280;15569;42.652;23.040;2024-03-02T01:57:33;92352.19;;;10.54
28305;BMP280;15569;42.652;23.040;2024-03-02T01:59:59;92314.47;;;10.11
28305;BMP280;15569;42.652;23.040;2024-03-02T02:02:25;92338.00;;;10.22
28305;BMP280;15569;42.652;23.040;2024-03-02T02:04:50;92331.81;;;10.04
28305;BMP280;15569;42.652;23.040;2024-03-02T02:07:15;92313.06;;;10.10
28305;BMP280;15569;42.652;23.040;2024-03-02T02:09:41;92335.22;;;10.38
28305;BMP280;15569;42.652;23.040;2024-03-02T02:12:07;92333.41;;;10.43
28305;BMP280;15569;42.652;23.040;2024-03-02T02:14:33;92326.81;;;10.48
28305;BMP280;15569;42.652;23.040;2024-03-02T02:16:59;92325.63;;;10.35
28305;BMP280;15569;42.652;23.040;2024-03-02T02:19:25;92327.97;;;10.43
28305;BMP280;15569;42.652;23.040;2024-03-02T02:21:50;92339.06;;;10.49
28305;BMP280;15569;42.652;23.040;2024-03-02T02:24:15;92343.34;;;10.54
28305;BMP280;15569;42.652;23.040;2024-03-02T02:26:41;92327.03;;;10.54
28305;BMP280;15569;42.652;23.040;2024-03-02T02:29:06;92323.13;;;10.41
28305;BMP280;15569;42.652;23.040;2024-03-02T02:31:38;92325.25;;;10.43
28305;BMP280;15569;42.652;23.040;2024-03-02T02:34:04;92308.78;;;10.39
28305;BMP280;15569;42.652;23.040;2024-03-02T02:36:30;92316.59;;;10.30
28305;BMP280;15569;42.652;23.040;2024-03-02T02:38:56;92320.56;;;10.27
28305;BMP280;15569;42.652;23.040;2024-03-02T02:41:21;92324.94;;;10.35
28305;BMP280;15569;42.652;23.040;2024-03-02T02:43:47;92312.97;;;10.42
28305;BMP280;15569;42.652;23.040;2024-03-02T02:46:12;92333.19;;;10.54
28305;BMP280;15569;42.652;23.040;2024-03-02T02:48:37;92338.09;;;10.58
28305;BMP280;15569;42.652;23.040;2024-03-02T02:51:03;92326.91;;;10.50
28305;BMP280;15569;42.652;23.040;2024-03-02T02:53:28;92337.31;;;10.55
28305;BMP280;15569;42.652;23.040;2024-03-02T02:55:54;92338.38;;;10.48
28305;BMP280;15569;42.652;23.040;2024-03-02T02:58:19;92332.56;;;10.56
28305;BMP280;15569;42.652;23.040;2024-03-02T03:00:44;92340.63;;;10.54
28305;BMP280;15569;42.652;23.040;2024-03-02T03:03:10;92328.03;;;10.45
28305;BMP280;15569;42.652;23.040;2024-03-02T03:05:35;92330.03;;;10.26
28305;BMP280;15569;42.652;23.040;2024-03-02T03:08:00;92331.59;;;10.32
28305;BMP280;15569;42.652;23.040;2024-03-02T03:10:26;92325.06;;;10.39
28305;BMP280;15569;42.652;23.040;2024-03-02T03:12:52;92329.13;;;10.38
28305;BMP280;15569;42.652;23.040;2024-03-02T03:15:18;92330.69;;;10.43
28305;BMP280;15569;42.652;23.040;2024-03-02T03:17:43;92332.22;;;10.48
28305;BMP280;15569;42.652;23.040;2024-03-02T03:20:11;92333.66;;;10.49
28305;BMP280;15569;42.652;23.040;2024-03-02T03:22:37;92329.03;;;10.53
28305;BMP280;15569;42.652;23.040;2024-03-02T03:25:03;92327.69;;;10.52
28305;BMP280;15569;42.652;23.040;2024-03-02T03:27:28;92327.44;;;10.46
28305;BMP280;15569;42.652;23.040;2024-03-02T03:29:54;92341.34;;;10.54
28305;BMP280;15569;42.652;23.040;2024-03-02T03:32:20;92330.22;;;10.48
28305;BMP280;15569;42.652;23.040;2024-03-02T03:34:45;92339.25;;;10.53
28305;BMP280;15569;42.652;23.040;2024-03-02T03:37:10;92335.06;;;10.50
28305;BMP280;15569;42.652;23.040;2024-03-02T03:39:36;92333.97;;;10.57
28305;BMP280;15569;42.652;23.040;2024-03-02T03:42:01;92324.09;;;10.48
28305;BMP280;15569;42.652;23.040;2024-03-02T03:44:27;92331.88;;;10.55
28305;BMP280;15569;42.652;23.040;2024-03-02T03:46:52;92329.00;;;10.51
28305;BMP280;15569;42.652;23.040;2024-03-02T03:49:18;92329.88;;;10.56
28305;BMP280;15569;42.652;23.040;2024-03-02T03:51:43;92332.81;;;10.62
28305;BMP280;15569;42.652;23.040;2024-03-02T03:54:08;92329.66;;;10.67
28305;BMP280;15569;42.652;23.040;2024-03-02T03:56:36;92328.75;;;10.63
28305;BMP280;15569;42.652;23.040;2024-03-02T03:59:01;92332.25;;;10.65
28305;BMP280;15569;42.652;23.040;2024-03-02T04:01:27;92335.22;;;10.71
28305;BMP280;15569;42.652;23.040;2024-03-02T04:03:52;92331.28;;;10.74
28305;BMP280;15569;42.652;23.040;2024-03-02T04:06:18;92329.00;;;10.69
28305;BMP280;15569;42.652;23.040;2024-03-02T04:08:43;92328.19;;;10.82
28305;BMP280;15569;42.652;23.040;2024-03-02T04:11:08;92326.94;;;10.85
28305;BMP280;15569;42.652;23.040;2024-03-02T04:13:34;92326.69;;;10.79
28305;BMP280;15569;42.652;23.040;2024-03-02T04:15:59;92317.44;;;10.68
28305;BMP280;15569;42.652;23.040;2024-03-02T04:18:25;92329.19;;;10.73
28305;BMP280;15569;42.652;23.040;2024-03-02T04:20:50;92327.78;;;10.72
28305;BMP280;15569;42.652;23.040;2024-03-02T04:23:15;92329.06;;;10.71
28305;BMP280;15569;42.652;23.040;2024-03-02T04:25:41;92321.16;;;10.59
28305;BMP280;15569;42.652;23.040;2024-03-02T04:28:06;92331.72;;;10.69
28305;BMP280;15569;42.652;23.040;2024-03-02T04:30:32;92335.31;;;10.73
28305;BMP280;15569;42.652;23.040;2024-03-02T04:32:57;92338.28;;;10.79
28305;BMP280;15569;42.652;23.040;2024-03-02T04:35:23;92338.13;;;10.75
28305;BMP280;15569;42.652;23.040;2024-03-02T04:37:48;92323.03;;;10.72
28305;BMP280;15569;42.652;23.040;2024-03-02T04:40:14;92335.41;;;10.75
28305;BMP280;15569;42.652;23.040;2024-03-02T04:42:39;92332.69;;;10.75
28305;BMP280;15569;42.652;23.040;2024-03-02T04:45:05;92325.44;;;10.64
28305;BMP280;15569;42.652;23.040;2024-03-02T04:47:31;92327.47;;;10.64
28305;BMP280;15569;42.652;23.040;2024-03-02T04:49:56;92329.94;;;10.58
28305;BMP280;15569;42.652;23.040;2024-03-02T04:52:21;92331.97;;;10.75
28305;BMP280;15569;42.652;23.040;2024-03-02T04:54:47;92344.47;;;10.64
28305;BMP280;15569;42.652;23.040;2024-03-02T04:57:31;92350.50;;;10.63
28305;BMP280;15569;42.652;23.040;2024-03-02T04:59:56;92353.41;;;10.67
28305;BMP280;15569;42.652;23.040;2024-03-02T05:02:22;92342.59;;;10.69
28305;BMP280;15569;42.652;23.040;2024-03-02T05:04:47;92338.50;;;10.68
28305;BMP280;15569;42.652;23.040;2024-03-02T05:07:14;92353.47;;;10.69
28305;BMP280;15569;42.652;23.040;2024-03-02T05:09:39;92351.53;;;10.71
28305;BMP280;15569;42.652;23.040;2024-03-02T05:12:05;92344.63;;;10.68
28305;BMP280;15569;42.652;23.040;2024-03-02T05:14:47;92347.91;;;10.65
28305;BMP280;15569;42.652;23.040;2024-03-02T05:17:13;92347.34;;;10.68
28305;BMP280;15569;42.652;23.040;2024-03-02T05:19:38;92347.03;;;10.60
28305;BMP280;15569;42.652;23.040;2024-03-02T05:22:04;92348.19;;;10.55
28305;BMP280;15569;42.652;23.040;2024-03-02T05:24:29;92358.97;;;10.71
28305;BMP280;15569;42.652;23.040;2024-03-02T05:26:55;92348.88;;;10.56
28305;BMP280;15569;42.652;23.040;2024-03-02T05:29:20;92349.50;;;10.72
28305;BMP280;15569;42.652;23.040;2024-03-02T05:31:46;92355.34;;;10.64
28305;BMP280;15569;42.652;23.040;2024-03-02T05:34:11;92357.75;;;10.74
28305;BMP280;15569;42.652;23.040;2024-03-02T05:36:37;92365.03;;;10.69
28305;BMP280;15569;42.652;23.040;2024-03-02T05:39:04;92365.13;;;10.71
28305;BMP280;15569;42.652;23.040;2024-03-02T05:41:31;92357.28;;;10.62
28305;BMP280;15569;42.652;23.040;2024-03-02T05:43:56;92363.03;;;10.70
28305;BMP280;15569;42.652;23.040;2024-03-02T05:46:22;92351.69;;;10.58
28305;BMP280;15569;42.652;23.040;2024-03-02T05:48:47;92347.78;;;10.63
28305;BMP280;15569;42.652;23.040;2024-03-02T05:51:13;92365.31;;;10.75
28305;BMP280;15569;42.652;23.040;2024-03-02T05:53:38;92354.63;;;10.64
28305;BMP280;15569;42.652;23.040;2024-03-02T05:56:04;92373.28;;;10.71
28305;BMP280;15569;42.652;23.040;2024-03-02T05:58:30;92377.91;;;10.69
28305;BMP280;15569;42.652;23.040;2024-03-02T06:01:14;92373.41;;;10.58
28305;BMP280;15569;42.652;23.040;2024-03-02T06:03:39;92365.03;;;10.52
28305;BMP280;15569;42.652;23.040;2024-03-02T06:06:05;92383.97;;;10.50
28305;BMP280;15569;42.652;23.040;2024-03-02T06:08:30;92369.22;;;10.55
28305;BMP280;15569;42.652;23.040;2024-03-02T06:10:56;92372.53;;;10.53
28305;BMP280;15569;42.652;23.040;2024-03-02T06:13:21;92379.00;;;10.62
28305;BMP280;15569;42.652;23.040;2024-03-02T06:15:47;92384.16;;;10.71
28305;BMP280;15569;42.652;23.040;2024-03-02T06:18:12;92378.63;;;10.69
28305;BMP280;15569;42.652;23.040;2024-03-02T06:20:37;92379.88;;;10.66
28305;BMP280;15569;42.652;23.040;2024-03-02T06:23:04;92372.94;;;10.63
28305;BMP280;15569;42.652;23.040;2024-03-02T06:25:29;92382.22;;;10.74
28305;BMP280;15569;42.652;23.040;2024-03-02T06:27:54;92380.63;;;10.69
28305;BMP280;15569;42.652;23.040;2024-03-02T06:30:20;92374.53;;;10.86
28305;BMP280;15569;42.652;23.040;2024-03-02T06:32:45;92381.56;;;10.91
28305;BMP280;15569;42.652;23.040;2024-03-02T06:35:10;92374.22;;;10.78
28305;BMP280;15569;42.652;23.040;2024-03-02T06:37:38;92382.44;;;10.80
28305;BMP280;15569;42.652;23.040;2024-03-02T06:40:05;92377.63;;;10.78
28305;BMP280;15569;42.652;23.040;2024-03-02T06:42:33;92390.31;;;10.89
28305;BMP280;15569;42.652;23.040;2024-03-02T06:44:59;92389.78;;;10.93
28305;BMP280;15569;42.652;23.040;2024-03-02T06:47:24;92386.06;;;11.02
28305;BMP280;15569;42.652;23.040;2024-03-02T06:49:49;92383.97;;;11.18
28305;BMP280;15569;42.652;23.040;2024-03-02T06:52:16;92396.41;;;11.23
28305;BMP280;15569;42.652;23.040;2024-03-02T06:54:41;92394.53;;;11.28
28305;BMP280;15569;42.652;23.040;2024-03-02T06:57:07;92392.22;;;11.38
28305;BMP280;15569;42.652;23.040;2024-03-02T06:59:32;92399.50;;;11.51
28305;BMP280;15569;42.652;23.040;2024-03-02T07:01:58;92404.84;;;11.49
28305;BMP280;15569;42.652;23.040;2024-03-02T07:04:24;92402.69;;;11.28
28305;BMP280;15569;42.652;23.040;2024-03-02T07:06:49;92405.59;;;11.14
28305;BMP280;15569;42.652;23.040;2024-03-02T07:09:16;92401.88;;;11.23
28305;BMP280;15569;42.652;23.040;2024-03-02T07:11:42;92387.53;;;11.05
28305;BMP280;15569;42.652;23.040;2024-03-02T07:14:08;92400.84;;;11.32
28305;BMP280;15569;42.652;23.040;2024-03-02T07:16:33;92402.47;;;11.39
28305;BMP280;15569;42.652;23.040;2024-03-02T07:19:00;92400.91;;;11.52
28305;BMP280;15569;42.652;23.040;2024-03-02T07:21:27;92397.09;;;11.41
28305;BMP280;15569;42.652;23.040;2024-03-02T07:23:52;92404.03;;;11.44
28305;BMP280;15569;42.652;23.040;2024-03-02T07:26:18;92396.47;;;11.60
28305;BMP280;15569;42.652;23.040;2024-03-02T07:28:45;92407.63;;;11.68
28305;BMP280;15569;42.652;23.040;2024-03-02T07:31:11;92405.28;;;11.78
28305;BMP280;15569;42.652;23.040;2024-03-02T07:33:36;92411.56;;;11.83
28305;BMP280;15569;42.652;23.040;2024-03-02T07:36:02;92413.56;;;11.80
28305;BMP280;15569;42.652;23.040;2024-03-02T07:38:31;92414.53;;;11.89
28305;BMP280;15569;42.652;23.040;2024-03-02T07:40:57;92418.63;;;11.90
28305;BMP280;15569;42.652;23.040;2024-03-02T07:43:22;92425.56;;;11.93
28305;BMP280;15569;42.652;23.040;2024-03-02T07:45:48;92420.97;;;11.98
28305;BMP280;15569;42.652;23.040;2024-03-02T07:48:17;92425.09;;;11.99
28305;BMP280;15569;42.652;23.040;2024-03-02T07:50:42;92427.59;;;11.93
28305;BMP280;15569;42.652;23.040;2024-03-02T07:53:08;92418.63;;;12.08
28305;BMP280;15569;42.652;23.040;2024-03-02T07:55:34;92419.94;;;12.07
28305;BMP280;15569;42.652;23.040;2024-03-02T07:58:00;92431.75;;;12.13
28305;BMP280;15569;42.652;23.040;2024-03-02T08:00:26;92427.19;;;12.20
28305;BMP280;15569;42.652;23.040;2024-03-02T08:02:52;92428.38;;;12.15
28305;BMP280;15569;42.652;23.040;2024-03-02T08:05:18;92423.22;;;12.23
28305;BMP280;15569;42.652;23.040;2024-03-02T08:07:45;92432.03;;;12.21
28305;BMP280;15569;42.652;23.040;2024-03-02T08:10:11;92441.50;;;12.20
28305;BMP280;15569;42.652;23.040;2024-03-02T08:12:36;92441.69;;;12.24
28305;BMP280;15569;42.652;23.040;2024-03-02T08:15:02;92439.97;;;12.35
28305;BMP280;15569;42.652;23.040;2024-03-02T08:17:27;92439.31;;;12.34
28305;BMP280;15569;42.652;23.040;2024-03-02T08:19:53;92443.75;;;12.45
28305;BMP280;15569;42.652;23.040;2024-03-02T08:22:19;92437.47;;;12.60
28305;BMP280;15569;42.652;23.040;2024-03-02T08:24:44;92440.41;;;12.66
28305;BMP280;15569;42.652;23.040;2024-03-02T08:27:10;92443.91;;;12.69
28305;BMP280;15569;42.652;23.040;2024-03-02T08:29:36;92439.97;;;12.74
28305;BMP280;15569;42.652;23.040;2024-03-02T08:32:01;92438.38;;;12.67
28305;BMP280;15569;42.652;23.040;2024-03-02T08:34:26;92433.50;;;12.63
28305;BMP280;15569;42.652;23.040;2024-03-02T08:36:52;92441.88;;;12.70
28305;BMP280;15569;42.652;23.040;2024-03-02T08:39:17;92445.56;;;12.78
28305;BMP280;15569;42.652;23.040;2024-03-02T08:41:45;92443.19;;;12.88
28305;BMP280;15569;42.652;23.040;2024-03-02T08:44:12;92444.56;;;12.89
28305;BMP280;15569;42.652;23.040;2024-03-02T08:46:38;92443.19;;;12.88
28305;BMP280;15569;42.652;23.040;2024-03-02T08:49:04;92437.97;;;12.96
28305;BMP280;15569;42.652;23.040;2024-03-02T08:51:29;92437.78;;;13.12
28305;BMP280;15569;42.652;23.040;2024-03-02T08:53:55;92428.53;;;13.21
28305;BMP280;15569;42.652;23.040;2024-03-02T08:56:20;92435.69;;;13.32
28305;BMP280;15569;42.652;23.040;2024-03-02T08:58:46;92439.50;;;13.44
28305;BMP280;15569;42.652;23.040;2024-03-02T09:01:12;92437.59;;;13.49
28305;BMP280;15569;42.652;23.040;2024-03-02T09:03:37;92442.53;;;13.55
28305;BMP280;15569;42.652;23.040;2024-03-02T09:06:03;92439.13;;;13.32
28305;BMP280;15569;42.652;23.040;2024-03-02T09:08:29;92453.19;;;13.46
28305;BMP280;15569;42.652;23.040;2024-03-02T09:10:55;92451.09;;;13.45
28305;BMP280;15569;42.652;23.040;2024-03-02T09:13:21;92455.75;;;13.40
28305;BMP280;15569;42.652;23.040;2024-03-02T09:15:47;92456.78;;;13.29
28305;BMP280;15569;42.652;23.040;2024-03-02T09:18:12;92466.41;;;13.32
28305;BMP280;15569;42.652;23.040;2024-03-02T09:20:38;92467.75;;;13.31
28305;BMP280;15569;42.652;23.040;2024-03-02T09:23:03;92467.00;;;13.29
28305;BMP280;15569;42.652;23.040;2024-03-02T09:25:29;92470.84;;;13.22
28305;BMP280;15569;42.652;23.040;2024-03-02T09:27:54;92465.91;;;13.16
28305;BMP280;15569;42.652;23.040;2024-03-02T09:30:19;92465.00;;;13.10
28305;BMP280;15569;42.652;23.040;2024-03-02T09:32:45;92461.38;;;13.03
28305;BMP280;15569;42.652;23.040;2024-03-02T09:35:10;92471.72;;;13.07
28305;BMP280;15569;42.652;23.040;2024-03-02T09:37:37;92473.34;;;12.94
28305;BMP280;15569;42.652;23.040;2024-03-02T09:40:02;92478.63;;;12.88
28305;BMP280;15569;42.652;23.040;2024-03-02T09:42:29;92467.22;;;12.74
28305;BMP280;15569;42.652;23.040;2024-03-02T09:44:54;92457.81;;;12.77
28305;BMP280;15569;42.652;23.040;2024-03-02T09:47:20;92471.84;;;12.89
28305;BMP280;15569;42.652;23.040;2024-03-02T09:49:46;92465.00;;;12.88
28305;BMP280;15569;42.652;23.040;2024-03-02T09:52:12;92470.44;;;12.88
28305;BMP280;15569;42.652;23.040;2024-03-02T09:54:38;92468.28;;;12.85
28305;BMP280;15569;42.652;23.040;2024-03-02T09:57:04;92465.00;;;12.68
28305;BMP280;15569;42.652;23.040;2024-03-02T09:59:29;92474.88;;;12.78
28305;BMP280;15569;42.652;23.040;2024-03-02T10:01:59;92468.09;;;12.79
28305;BMP280;15569;42.652;23.040;2024-03-02T10:04:29;92465.06;;;12.71
28305;BMP280;15569;42.652;23.040;2024-03-02T10:09:39;92461.56;;;12.68
28305;BMP280;15569;42.652;23.040;2024-03-02T10:12:05;92465.28;;;12.77
28305;BMP280;15569;42.652;23.040;2024-03-02T10:14:31;92467.66;;;12.66
28305;BMP280;15569;42.652;23.040;2024-03-02T10:17:02;92466.50;;;12.52
28305;BMP280;15569;42.652;23.040;2024-03-02T10:19:28;92469.06;;;12.48
28305;BMP280;15569;42.652;23.040;2024-03-02T10:21:57;92466.50;;;12.52
28305;BMP280;15569;42.652;23.040;2024-03-02T10:24:23;92468.28;;;12.45
28305;BMP280;15569;42.652;23.040;2024-03-02T10:26:49;92457.47;;;12.47
28305;BMP280;15569;42.652;23.040;2024-03-02T10:29:15;92464.13;;;12.42
28305;BMP280;15569;42.652;23.040;2024-03-02T10:31:46;92462.19;;;12.47
28305;BMP280;15569;42.652;23.040;2024-03-02T10:34:12;92466.41;;;12.50
28305;BMP280;15569;42.652;23.040;2024-03-02T10:36:40;92456.06;;;12.27
28305;BMP280;15569;42.652;23.040;2024-03-02T10:39:07;92460.28;;;12.49
28305;BMP280;15569;42.652;23.040;2024-03-02T10:41:37;92455.84;;;12.21
28305;BMP280;15569;42.652;23.040;2024-03-02T10:44:04;92462.59;;;12.37
28305;BMP280;15569;42.652;23.040;2024-03-02T10:46:32;92464.28;;;12.29
28305;BMP280;15569;42.652;23.040;2024-03-02T10:48:59;92463.69;;;12.30
28305;BMP280;15569;42.652;23.040;2024-03-02T10:51:28;92455.19;;;12.03
28305;BMP280;15569;42.652;23.040;2024-03-02T10:53:57;92456.25;;;12.33
28305;BMP280;15569;42.652;23.040;2024-03-02T10:56:34;92449.16;;;12.63
28305;BMP280;15569;42.652;23.040;2024-03-02T10:59:37;92446.22;;;12.98
28305;BMP280;15569;42.652;23.040;2024-03-02T11:02:04;92446.19;;;13.18
28305;BMP280;15569;42.652;23.040;2024-03-02T11:04:32;92433.09;;;13.36
28305;BMP280;15569;42.652;23.040;2024-03-02T11:07:08;92435.69;;;13.54
28305;BMP280;15569;42.652;23.040;2024-03-02T11:09:39;92433.38;;;13.68
28305;BMP280;15569;42.652;23.040;2024-03-02T11:14:50;92433.53;;;13.97
28305;BMP280;15569;42.652;23.040;2024-03-02T11:17:18;92438.09;;;14.14
28305;BMP280;15569;42.652;23.040;2024-03-02T11:19:44;92441.72;;;14.21
28305;BMP280;15569;42.652;23.040;2024-03-02T11:22:11;92433.03;;;13.79
28305;BMP280;15569;42.652;23.040;2024-03-02T11:24:37;92437.53;;;13.71
28305;BMP280;15569;42.652;23.040;2024-03-02T11:27:04;92436.97;;;13.98
28305;BMP280;15569;42.652;23.040;2024-03-02T11:32:21;92433.69;;;14.27
28305;BMP280;15569;42.652;23.040;2024-03-02T11:34:49;92432.00;;;14.42
28305;BMP280;15569;42.652;23.040;2024-03-02T11:37:16;92425.38;;;14.23
28305;BMP280;15569;42.652;23.040;2024-03-02T11:39:44;92421.06;;;14.42
28305;BMP280;15569;42.652;23.040;2024-03-02T11:42:11;92429.63;;;14.04
28305;BMP280;15569;42.652;23.040;2024-03-02T11:44:37;92430.28;;;13.79
28305;BMP280;15569;42.652;23.040;2024-03-02T11:47:08;92420.75;;;13.57
28305;BMP280;15569;42.652;23.040;2024-03-02T11:49:50;92430.41;;;13.83
28305;BMP280;15569;42.652;23.040;2024-03-02T11:52:17;92432.78;;;13.95
28305;BMP280;15569;42.652;23.040;2024-03-02T11:54:45;92434.28;;;14.00
28305;BMP280;15569;42.652;23.040;2024-03-02T11:57:16;92429.03;;;14.08
28305;BMP280;15569;42.652;23.040;2024-03-02T11:59:43;92427.34;;;14.20
28305;BMP280;15569;42.652;23.040;2024-03-02T12:02:15;92420.78;;;14.31
28305;BMP280;15569;42.652;23.040;2024-03-02T12:04:42;92417.50;;;14.35
28305;BMP280;15569;42.652;23.040;2024-03-02T12:07:08;92421.50;;;14.32
28305;BMP280;15569;42.652;23.040;2024-03-02T12:09:34;92414.59;;;14.29
28305;BMP280;15569;42.652;23.040;2024-03-02T12:12:07;92417.50;;;14.35
28305;BMP280;15569;42.652;23.040;2024-03-02T12:14:35;92422.91;;;14.33
28305;BMP280;15569;42.652;23.040;2024-03-02T12:17:01;92424.19;;;14.30
28305;BMP280;15569;42.652;23.040;2024-03-02T12:19:26;92420.00;;;14.27
28305;BMP280;15569;42.652;23.040;2024-03-02T12:21:56;92424.44;;;14.40
28305;BMP280;15569;42.652;23.040;2024-03-02T12:24:21;92419.69;;;14.41
28305;BMP280;15569;42.652;23.040;2024-03-02T12:26:51;92424.94;;;14.32
28305;BMP280;15569;42.652;23.040;2024-03-02T12:29:19;92417.34;;;14.29
28305;BMP280;15569;42.652;23.040;2024-03-02T12:31:44;92422.25;;;14.34
28305;BMP280;15569;42.652;23.040;2024-03-02T12:34:14;92418.72;;;14.30
28305;BMP280;15569;42.652;23.040;2024-03-02T12:36:40;92412.03;;;14.35
28305;BMP280;15569;42.652;23.040;2024-03-02T12:39:07;92413.66;;;14.46
28305;BMP280;15569;42.652;23.040;2024-03-02T12:41:38;92423.81;;;14.42
28305;BMP280;15569;42.652;23.040;2024-03-02T12:44:05;92424.19;;;14.30
28305;BMP280;15569;42.652;23.040;2024-03-02T12:46:34;92417.84;;;13.98
28305;BMP280;15569;42.652;23.040;2024-03-02T12:49:16;92421.78;;;13.93
28305;BMP280;15569;42.652;23.040;2024-03-02T12:51:42;92408.44;;;13.56
28305;BMP280;15569;42.652;23.040;2024-03-02T12:54:09;92427.50;;;13.77
28305;BMP280;15569;42.652;23.040;2024-03-02T12:56:35;92422.81;;;13.80
28305;BMP280;15569;42.652;23.040;2024-03-02T12:59:01;92433.81;;;13.84
28305;BMP280;15569;42.652;23.040;2024-03-02T13:01:26;92422.47;;;13.70
28305;BMP280;15569;42.652;23.040;2024-03-02T13:03:55;92431.53;;;13.74
28305;BMP280;15569;42.652;23.040;2024-03-02T13:06:21;92431.09;;;13.60
28305;BMP280;15569;42.652;23.040;2024-03-02T13:08:46;92416.75;;;13.60
28305;BMP280;15569;42.652;23.040;2024-03-02T13:11:12;92429.06;;;13.61
28305;BMP280;15569;42.652;23.040;2024-03-02T13:13:39;92435.94;;;13.62
28305;BMP280;15569;42.652;23.040;2024-03-02T13:16:11;92436.66;;;13.64
28305;BMP280;15569;42.652;23.040;2024-03-02T13:18:40;92438.41;;;13.54
28305;BMP280;15569;42.652;23.040;2024-03-02T13:21:06;92435.06;;;13.57
28305;BMP280;15569;42.652;23.040;2024-03-02T13:23:32;92444.59;;;13.32
28305;BMP280;15569;42.652;23.040;2024-03-02T13:25:58;92431.97;;;13.45
28305;BMP280;15569;42.652;23.040;2024-03-02T13:28:24;92433.09;;;13.36
28305;BMP280;15569;42.652;23.040;2024-03-02T13:30:49;92434.69;;;13.43
28305;BMP280;15569;42.652;23.040;2024-03-02T13:33:15;92444.06;;;13.60
28305;BMP280;15569;42.652;23.040;2024-03-02T13:35:40;92434.75;;;13.69
28305;BMP280;15569;42.652;23.040;2024-03-02T13:38:05;92445.63;;;13.67
28305;BMP280;15569;42.652;23.040;2024-03-02T13:40:31;92442.28;;;13.68
28305;BMP280;15569;42.652;23.040;2024-03-02T13:43:01;92445.34;;;13.80
28305;BMP280;15569;42.652;23.040;2024-03-02T13:45:26;92449.44;;;13.58
28305;BMP280;15569;42.652;23.040;2024-03-02T13:47:53;92443.94;;;14.03
28305;BMP280;15569;42.652;23.040;2024-03-02T13:50:18;92451.03;;;14.37
28305;BMP280;15569;42.652;23.040;2024-03-02T13:52:43;92446.31;;;15.51
28305;BMP280;15569;42.652;23.040;2024-03-02T13:55:09;92427.56;;;16.38
28305;BMP280;15569;42.652;23.040;2024-03-02T13:57:34;92438.59;;;16.80
28305;BMP280;15569;42.652;23.040;2024-03-02T13:59:59;92436.84;;;16.98
28305;BMP280;15569;42.652;23.040;2024-03-02T14:02:26;92447.19;;;17.48